Moon, Virginia
Current Conditions -  °F | °C
As of 3:55 PM on Thursday 18 Dec 2014 (Local Time) from KW75 Reporting Station
Clear Clear  
Wind Chill: 39°   Ceiling: Unl
Heat Index: 42°   Visibility: 10mi
Dew Point: 24°   Wind: 5mph
Humidity: 50%   Direction: 330°NNW
Pressure: 30.09"   Gusts: NA
Location:  37.44°N, 76.29°W
Report Text: KW75 182055Z AUTO 33004KT 10SM CLR 05/M04 A3009 RMK AO1 T00541043
Loading
Personal Weather Stations






























Interactive Weather Map New forecast layout! Learn more

10-Day Weather Forecast

Advertisements
Track Severe Weather on mobile